sensor_id;sensor_type;location;lat;lon;timestamp;pressure;altitude;pressure_sealevel;temperature;humidity
47366;BME280;33105;47.964;7.982;2023-05-21T00:20:19;96233.31;;;13.75;89.91
47366;BME280;33105;47.964;7.982;2023-05-21T00:25:03;96245.16;;;13.71;89.89
47366;BME280;33105;47.964;7.982;2023-05-21T00:32:27;96243.22;;;13.71;89.95
47366;BME280;33105;47.964;7.982;2023-05-21T00:36:22;96235.34;;;13.65;90.42
47366;BME280;33105;47.964;7.982;2023-05-21T00:49:29;96235.06;;;13.42;91.08
47366;BME280;33105;47.964;7.982;2023-05-21T00:58:10;96239.00;;;13.36;91.57
47366;BME280;33105;47.964;7.982;2023-05-21T01:02:10;96243.44;;;13.32;92.36
47366;BME280;33105;47.964;7.982;2023-05-21T01:06:21;96236.31;;;13.31;92.39
47366;BME280;33105;47.964;7.982;2023-05-21T01:10:12;96237.66;;;13.34;91.83
47366;BME280;33105;47.964;7.982;2023-05-21T01:14:45;96226.41;;;13.35;91.40
47366;BME280;33105;47.964;7.982;2023-05-21T01:23:14;96228.97;;;13.26;92.23
47366;BME280;33105;47.964;7.982;2023-05-21T01:26:32;96232.00;;;13.25;93.33
47366;BME280;33105;47.964;7.982;2023-05-21T01:30:05;96224.63;;;13.20;93.55
47366;BME280;33105;47.964;7.982;2023-05-21T01:34:10;96214.53;;;13.16;93.28
47366;BME280;33105;47.964;7.982;2023-05-21T01:42:31;96229.88;;;13.17;93.15
47366;BME280;33105;47.964;7.982;2023-05-21T01:46:56;96224.78;;;13.05;94.70
47366;BME280;33105;47.964;7.982;2023-05-21T01:51:22;96219.00;;;13.07;94.04
47366;BME280;33105;47.964;7.982;2023-05-21T01:54:24;96221.81;;;13.02;94.39
47366;BME280;33105;47.964;7.982;2023-05-21T01:57:28;96221.84;;;12.97;94.24
47366;BME280;33105;47.964;7.982;2023-05-21T02:05:39;96219.97;;;12.92;94.21
47366;BME280;33105;47.964;7.982;2023-05-21T02:08:57;96209.28;;;12.90;93.95
47366;BME280;33105;47.964;7.982;2023-05-21T02:11:59;96217.28;;;12.87;94.68
47366;BME280;33105;47.964;7.982;2023-05-21T02:15:01;96219.81;;;12.83;94.74
47366;BME280;33105;47.964;7.982;2023-05-21T02:18:28;96214.06;;;12.80;94.49
47366;BME280;33105;47.964;7.982;2023-05-21T02:21:59;96211.03;;;12.81;94.36
47366;BME280;33105;47.964;7.982;2023-05-21T02:25:39;96206.97;;;12.79;94.57
47366;BME280;33105;47.964;7.982;2023-05-21T02:29:06;96206.75;;;12.70;95.08
47366;BME280;33105;47.964;7.982;2023-05-21T02:32:43;96202.28;;;12.79;94.52
47366;BME280;33105;47.964;7.982;2023-05-21T02:36:45;96200.22;;;12.66;95.41
47366;BME280;33105;47.964;7.982;2023-05-21T02:40:16;96202.44;;;12.64;94.63
47366;BME280;33105;47.964;7.982;2023-05-21T02:43:32;96197.59;;;12.56;95.98
47366;BME280;33105;47.964;7.982;2023-05-21T02:46:34;96194.72;;;12.66;94.81
47366;BME280;33105;47.964;7.982;2023-05-21T02:49:39;96197.22;;;12.63;94.76
47366;BME280;33105;47.964;7.982;2023-05-21T02:52:46;96206.09;;;12.54;95.57
47366;BME280;33105;47.964;7.982;2023-05-21T02:55:54;96199.25;;;12.52;95.46
47366;BME280;33105;47.964;7.982;2023-05-21T02:59:03;96196.53;;;12.52;94.95
47366;BME280;33105;47.964;7.982;2023-05-21T03:02:14;96196.28;;;12.48;95.26
47366;BME280;33105;47.964;7.982;2023-05-21T03:05:53;96197.94;;;12.44;95.71
47366;BME280;33105;47.964;7.982;2023-05-21T03:28:41;96214.75;;;11.99;95.89
47366;BME280;33105;47.964;7.982;2023-05-21T03:32:20;96215.78;;;12.08;96.50
47366;BME280;33105;47.964;7.982;2023-05-21T03:40:45;96217.63;;;12.17;95.76
47366;BME280;33105;47.964;7.982;2023-05-21T03:48:41;96224.81;;;12.08;97.06
47366;BME280;33105;47.964;7.982;2023-05-21T03:53:06;96230.84;;;12.05;97.05
47366;BME280;33105;47.964;7.982;2023-05-21T03:56:43;96245.66;;;12.04;96.46
47366;BME280;33105;47.964;7.982;2023-05-21T04:00:08;96238.53;;;12.03;96.54
47366;BME280;33105;47.964;7.982;2023-05-21T04:03:59;96241.84;;;12.00;96.59
47366;BME280;33105;47.964;7.982;2023-05-21T04:07:33;96236.63;;;11.99;96.37
47366;BME280;33105;47.964;7.982;2023-05-21T04:16:07;96256.38;;;11.96;97.39
47366;BME280;33105;47.964;7.982;2023-05-21T04:20:21;96260.75;;;11.97;97.58
47366;BME280;33105;47.964;7.982;2023-05-21T04:32:09;96269.47;;;12.04;97.21
47366;BME280;33105;47.964;7.982;2023-05-21T04:35:15;96268.38;;;12.05;97.54
47366;BME280;33105;47.964;7.982;2023-05-21T04:38:53;96267.00;;;12.07;97.33
47366;BME280;33105;47.964;7.982;2023-05-21T04:42:47;96279.78;;;12.17;96.96
47366;BME280;33105;47.964;7.982;2023-05-21T04:51:19;96276.72;;;12.23;97.27
47366;BME280;33105;47.964;7.982;2023-05-21T04:55:32;96276.41;;;12.30;96.96
47366;BME280;33105;47.964;7.982;2023-05-21T04:59:45;96277.81;;;12.27;97.52
47366;BME280;33105;47.964;7.982;2023-05-21T05:08:48;96291.09;;;12.44;97.45
47366;BME280;33105;47.964;7.982;2023-05-21T05:12:48;96287.59;;;12.73;95.74
47366;BME280;33105;47.964;7.982;2023-05-21T05:16:22;96285.06;;;12.81;94.65
47366;BME280;33105;47.964;7.982;2023-05-21T05:20:25;96281.97;;;12.88;95.22
47366;BME280;33105;47.964;7.982;2023-05-21T05:23:55;96280.56;;;12.90;95.00
47366;BME280;33105;47.964;7.982;2023-05-21T05:27:48;96279.78;;;13.14;93.63
47366;BME280;33105;47.964;7.982;2023-05-21T05:35:46;96270.88;;;13.32;93.19
47366;BME280;33105;47.964;7.982;2023-05-21T05:40:04;96276.94;;;13.29;94.01
47366;BME280;33105;47.964;7.982;2023-05-21T05:46:53;96265.50;;;13.46;94.15
47366;BME280;33105;47.964;7.982;2023-05-21T06:13:16;96256.19;;;14.46;91.65
47366;BME280;33105;47.964;7.982;2023-05-21T06:16:34;96260.03;;;14.96;90.09
47366;BME280;33105;47.964;7.982;2023-05-21T06:30:51;96257.69;;;15.49;86.89
47366;BME280;33105;47.964;7.982;2023-05-21T06:34:41;96250.38;;;15.58;86.05
47366;BME280;33105;47.964;7.982;2023-05-21T06:38:08;96252.63;;;15.56;85.58
47366;BME280;33105;47.964;7.982;2023-05-21T06:45:31;96254.13;;;15.62;85.88
47366;BME280;33105;47.964;7.982;2023-05-21T06:54:11;96252.97;;;15.22;88.13
47366;BME280;33105;47.964;7.982;2023-05-21T06:58:07;96250.31;;;15.45;87.86
47366;BME280;33105;47.964;7.982;2023-05-21T07:02:00;96251.97;;;15.46;88.25
47366;BME280;33105;47.964;7.982;2023-05-21T07:05:10;96254.13;;;15.62;87.28
47366;BME280;33105;47.964;7.982;2023-05-21T07:08:24;96259.72;;;15.85;84.40
47366;BME280;33105;47.964;7.982;2023-05-21T07:12:28;96256.34;;;15.88;85.72
47366;BME280;33105;47.964;7.982;2023-05-21T07:31:35;96256.31;;;16.15;84.46
47366;BME280;33105;47.964;7.982;2023-05-21T07:43:38;96249.19;;;16.37;83.10
47366;BME280;33105;47.964;7.982;2023-05-21T07:47:45;96246.91;;;16.52;84.64
47366;BME280;33105;47.964;7.982;2023-05-21T07:51:26;96249.00;;;16.91;84.38
47366;BME280;33105;47.964;7.982;2023-05-21T07:54:30;96242.50;;;16.65;81.96
47366;BME280;33105;47.964;7.982;2023-05-21T07:57:41;96238.69;;;16.75;82.65
47366;BME280;33105;47.964;7.982;2023-05-21T08:00:57;96237.09;;;17.05;81.71
47366;BME280;33105;47.964;7.982;2023-05-21T08:04:00;96238.72;;;17.06;81.83
47366;BME280;33105;47.964;7.982;2023-05-21T08:07:12;96245.66;;;17.34;80.40
47366;BME280;33105;47.964;7.982;2023-05-21T08:10:14;96243.00;;;17.20;80.33
47366;BME280;33105;47.964;7.982;2023-05-21T08:13:16;96231.59;;;17.75;80.35
47366;BME280;33105;47.964;7.982;2023-05-21T08:16:19;96234.03;;;17.85;78.50
47366;BME280;33105;47.964;7.982;2023-05-21T08:19:21;96232.63;;;18.05;74.91
47366;BME280;33105;47.964;7.982;2023-05-21T08:22:23;96232.47;;;17.62;77.95
47366;BME280;33105;47.964;7.982;2023-05-21T08:25:26;96238.09;;;17.88;77.07
47366;BME280;33105;47.964;7.982;2023-05-21T08:28:30;96232.44;;;17.93;77.50
47366;BME280;33105;47.964;7.982;2023-05-21T08:31:35;96226.94;;;18.19;75.79
47366;BME280;33105;47.964;7.982;2023-05-21T08:34:37;96225.66;;;18.33;77.86
47366;BME280;33105;47.964;7.982;2023-05-21T08:37:58;96221.41;;;18.19;78.78
47366;BME280;33105;47.964;7.982;2023-05-21T08:41:17;96226.66;;;18.63;76.02
47366;BME280;33105;47.964;7.982;2023-05-21T08:44:24;96226.00;;;18.49;74.07
47366;BME280;33105;47.964;7.982;2023-05-21T08:47:29;96222.28;;;18.80;73.26
47366;BME280;33105;47.964;7.982;2023-05-21T08:50:33;96216.81;;;19.18;71.95
47366;BME280;33105;47.964;7.982;2023-05-21T08:53:40;96220.13;;;19.49;72.13
47366;BME280;33105;47.964;7.982;2023-05-21T08:56:45;96226.09;;;19.22;76.65
47366;BME280;33105;47.964;7.982;2023-05-21T08:59:51;96221.69;;;19.21;71.97
47366;BME280;33105;47.964;7.982;2023-05-21T09:02:59;96221.41;;;19.60;68.91
47366;BME280;33105;47.964;7.982;2023-05-21T09:06:02;96229.78;;;19.34;71.99
47366;BME280;33105;47.964;7.982;2023-05-21T09:09:23;96231.03;;;18.90;72.51
47366;BME280;33105;47.964;7.982;2023-05-21T09:12:28;96230.06;;;18.95;71.85
47366;BME280;33105;47.964;7.982;2023-05-21T09:15:32;96227.53;;;19.28;72.43
47366;BME280;33105;47.964;7.982;2023-05-21T09:18:35;96229.19;;;19.29;71.38
47366;BME280;33105;47.964;7.982;2023-05-21T09:22:09;96227.97;;;19.47;71.88
47366;BME280;33105;47.964;7.982;2023-05-21T09:25:13;96227.47;;;19.54;73.47
47366;BME280;33105;47.964;7.982;2023-05-21T09:28:19;96229.59;;;19.48;72.22
47366;BME280;33105;47.964;7.982;2023-05-21T09:31:22;96228.97;;;19.81;73.37
47366;BME280;33105;47.964;7.982;2023-05-21T09:34:24;96220.63;;;20.40;75.20
47366;BME280;33105;47.964;7.982;2023-05-21T09:38:11;96226.41;;;20.76;69.95
47366;BME280;33105;47.964;7.982;2023-05-21T09:45:51;96223.06;;;20.62;70.96
47366;BME280;33105;47.964;7.982;2023-05-21T09:49:02;96220.38;;;20.53;68.21
47366;BME280;33105;47.964;7.982;2023-05-21T09:52:11;96225.84;;;20.41;66.53
47366;BME280;33105;47.964;7.982;2023-05-21T09:55:16;96218.63;;;20.49;69.17
47366;BME280;33105;47.964;7.982;2023-05-21T09:58:26;96224.22;;;20.61;69.92
47366;BME280;33105;47.964;7.982;2023-05-21T10:01:37;96224.59;;;20.92;70.10
47366;BME280;33105;47.964;7.982;2023-05-21T10:05:15;96219.72;;;20.89;67.25
47366;BME280;33105;47.964;7.982;2023-05-21T10:08:21;96212.53;;;20.88;68.26
47366;BME280;33105;47.964;7.982;2023-05-21T10:11:33;96212.50;;;21.42;66.91
47366;BME280;33105;47.964;7.982;2023-05-21T10:14:52;96213.56;;;21.17;67.36
47366;BME280;33105;47.964;7.982;2023-05-21T10:18:15;96203.25;;;21.50;69.07
47366;BME280;33105;47.964;7.982;2023-05-21T10:27:05;96206.56;;;21.31;65.56
47366;BME280;33105;47.964;7.982;2023-05-21T10:30:09;96199.19;;;21.02;67.15
47366;BME280;33105;47.964;7.982;2023-05-21T10:33:14;96200.47;;;21.62;65.87
47366;BME280;33105;47.964;7.982;2023-05-21T10:37:06;96200.97;;;22.01;64.53
47366;BME280;33105;47.964;7.982;2023-05-21T10:40:39;96199.56;;;22.07;69.35
47366;BME280;33105;47.964;7.982;2023-05-21T11:00:39;96202.34;;;22.07;64.38
47366;BME280;33105;47.964;7.982;2023-05-21T11:04:55;96195.38;;;22.25;62.91
47366;BME280;33105;47.964;7.982;2023-05-21T11:36:15;96192.66;;;23.09;59.53
47366;BME280;33105;47.964;7.982;2023-05-21T11:39:38;96192.19;;;22.91;60.20
47366;BME280;33105;47.964;7.982;2023-05-21T11:43:06;96185.59;;;23.27;64.40
47366;BME280;33105;47.964;7.982;2023-05-21T11:46:12;96182.56;;;23.04;60.02
47366;BME280;33105;47.964;7.982;2023-05-21T11:50:13;96187.91;;;23.10;61.38
47366;BME280;33105;47.964;7.982;2023-05-21T12:03:59;96185.19;;;22.57;62.04
47366;BME280;33105;47.964;7.982;2023-05-21T12:07:44;96181.88;;;22.52;63.86
47366;BME280;33105;47.964;7.982;2023-05-21T12:11:10;96180.97;;;22.76;64.88
47366;BME280;33105;47.964;7.982;2023-05-21T12:14:32;96186.97;;;22.90;63.63
47366;BME280;33105;47.964;7.982;2023-05-21T12:17:43;96177.25;;;23.43;62.06
47366;BME280;33105;47.964;7.982;2023-05-21T12:20:52;96188.59;;;23.82;63.75
47366;BME280;33105;47.964;7.982;2023-05-21T12:24:00;96204.38;;;23.74;59.16
47366;BME280;33105;47.964;7.982;2023-05-21T12:31:41;96216.69;;;22.86;62.21
47366;BME280;33105;47.964;7.982;2023-05-21T12:35:00;96214.16;;;21.92;64.15
47366;BME280;33105;47.964;7.982;2023-05-21T12:38:06;96221.69;;;22.03;66.29
47366;BME280;33105;47.964;7.982;2023-05-21T12:46:31;96228.75;;;21.52;65.03
47366;BME280;33105;47.964;7.982;2023-05-21T12:49:48;96238.22;;;21.63;66.34
47366;BME280;33105;47.964;7.982;2023-05-21T12:53:36;96241.44;;;21.53;67.67
47366;BME280;33105;47.964;7.982;2023-05-21T12:57:35;96247.19;;;21.24;67.43
47366;BME280;33105;47.964;7.982;2023-05-21T13:02:20;96240.53;;;21.16;68.76
47366;BME280;33105;47.964;7.982;2023-05-21T13:06:40;96239.22;;;21.34;68.47
47366;BME280;33105;47.964;7.982;2023-05-21T13:10:47;96243.94;;;21.22;68.83
47366;BME280;33105;47.964;7.982;2023-05-21T13:17:39;96242.53;;;20.95;69.29
47366;BME280;33105;47.964;7.982;2023-05-21T13:20:49;96233.31;;;21.03;69.32
47366;BME280;33105;47.964;7.982;2023-05-21T13:24:28;96230.72;;;21.19;69.00
47366;BME280;33105;47.964;7.982;2023-05-21T13:27:48;96242.72;;;21.11;68.79
47366;BME280;33105;47.964;7.982;2023-05-21T13:30:50;96232.34;;;21.20;67.20
47366;BME280;33105;47.964;7.982;2023-05-21T13:38:05;96232.81;;;21.67;67.15
47366;BME280;33105;47.964;7.982;2023-05-21T13:41:24;96229.28;;;21.46;67.12
47366;BME280;33105;47.964;7.982;2023-05-21T13:45:04;96242.00;;;21.01;67.96
47366;BME280;33105;47.964;7.982;2023-05-21T13:48:48;96239.66;;;21.03;65.90
47366;BME280;33105;47.964;7.982;2023-05-21T13:56:43;96227.41;;;21.25;68.36
47366;BME280;33105;47.964;7.982;2023-05-21T13:59:54;96232.97;;;21.04;67.62
47366;BME280;33105;47.964;7.982;2023-05-21T14:02:57;96224.63;;;21.04;67.37
47366;BME280;33105;47.964;7.982;2023-05-21T14:06:01;96223.16;;;21.40;67.94
47366;BME280;33105;47.964;7.982;2023-05-21T14:13:15;96201.03;;;22.29;68.40
47366;BME280;33105;47.964;7.982;2023-05-21T14:31:06;96198.19;;;22.93;61.51
47366;BME280;33105;47.964;7.982;2023-05-21T14:34:09;96198.59;;;22.80;59.52
47366;BME280;33105;47.964;7.982;2023-05-21T14:37:15;96189.19;;;22.84;60.86
47366;BME280;33105;47.964;7.982;2023-05-21T14:40:20;96190.47;;;22.74;64.68
47366;BME280;33105;47.964;7.982;2023-05-21T14:43:29;96194.59;;;22.93;60.27
47366;BME280;33105;47.964;7.982;2023-05-21T14:46:41;96197.06;;;23.10;59.38
47366;BME280;33105;47.964;7.982;2023-05-21T14:49:42;96203.19;;;23.16;58.33
47366;BME280;33105;47.964;7.982;2023-05-21T14:52:51;96204.94;;;22.92;59.04
47366;BME280;33105;47.964;7.982;2023-05-21T14:56:34;96208.28;;;22.58;63.46
47366;BME280;33105;47.964;7.982;2023-05-21T14:59:48;96216.88;;;22.53;60.54
47366;BME280;33105;47.964;7.982;2023-05-21T15:03:35;96214.38;;;21.99;63.98
47366;BME280;33105;47.964;7.982;2023-05-21T15:11:56;96221.91;;;21.86;66.02
47366;BME280;33105;47.964;7.982;2023-05-21T15:15:07;96226.06;;;21.56;66.53
47366;BME280;33105;47.964;7.982;2023-05-21T15:19:03;96236.78;;;21.33;67.09
47366;BME280;33105;47.964;7.982;2023-05-21T15:22:14;96249.59;;;20.92;67.71
47366;BME280;33105;47.964;7.982;2023-05-21T15:25:37;96260.97;;;20.58;66.42
47366;BME280;33105;47.964;7.982;2023-05-21T15:29:02;96258.69;;;20.60;66.84
47366;BME280;33105;47.964;7.982;2023-05-21T15:32:15;96260.09;;;20.45;64.85
47366;BME280;33105;47.964;7.982;2023-05-21T15:35:25;96260.28;;;20.40;61.47
47366;BME280;33105;47.964;7.982;2023-05-21T15:38:52;96258.41;;;20.02;63.10
47366;BME280;33105;47.964;7.982;2023-05-21T15:41:54;96262.31;;;20.01;62.80
47366;BME280;33105;47.964;7.982;2023-05-21T15:44:57;96281.47;;;20.15;63.52
47366;BME280;33105;47.964;7.982;2023-05-21T15:48:05;96285.34;;;19.93;63.80
47366;BME280;33105;47.964;7.982;2023-05-21T15:51:07;96293.81;;;20.26;61.77
47366;BME280;33105;47.964;7.982;2023-05-21T15:54:09;96303.03;;;20.10;62.22
47366;BME280;33105;47.964;7.982;2023-05-21T15:57:13;96314.16;;;19.63;65.81
47366;BME280;33105;47.964;7.982;2023-05-21T16:00:16;96325.41;;;19.49;66.76
47366;BME280;33105;47.964;7.982;2023-05-21T16:03:17;96328.72;;;19.17;69.88
47366;BME280;33105;47.964;7.982;2023-05-21T16:06:20;96331.97;;;18.84;73.53
47366;BME280;33105;47.964;7.982;2023-05-21T16:09:22;96330.97;;;18.54;76.86
47366;BME280;33105;47.964;7.982;2023-05-21T16:12:24;96339.34;;;18.23;79.59
47366;BME280;33105;47.964;7.982;2023-05-21T16:15:26;96338.31;;;18.11;80.99
47366;BME280;33105;47.964;7.982;2023-05-21T16:18:29;96340.50;;;17.83;83.66
47366;BME280;33105;47.964;7.982;2023-05-21T16:21:34;96348.72;;;18.05;83.75
47366;BME280;33105;47.964;7.982;2023-05-21T16:24:42;96342.28;;;17.79;83.83
47366;BME280;33105;47.964;7.982;2023-05-21T16:27:50;96337.22;;;17.72;84.60
47366;BME280;33105;47.964;7.982;2023-05-21T16:31:02;96333.47;;;17.46;87.21
47366;BME280;33105;47.964;7.982;2023-05-21T16:34:35;96334.78;;;17.48;86.05
47366;BME280;33105;47.964;7.982;2023-05-21T16:41:15;96337.06;;;17.02;89.75
47366;BME280;33105;47.964;7.982;2023-05-21T16:44:30;96336.97;;;16.71;93.14
47366;BME280;33105;47.964;7.982;2023-05-21T16:53:23;96336.91;;;16.48;93.50
47366;BME280;33105;47.964;7.982;2023-05-21T17:08:12;96326.25;;;15.92;98.45
47366;BME280;33105;47.964;7.982;2023-05-21T17:16:37;96331.25;;;15.76;97.03
47366;BME280;33105;47.964;7.982;2023-05-21T17:25:33;96313.56;;;15.50;100.00
47366;BME280;33105;47.964;7.982;2023-05-21T17:34:45;96310.13;;;15.58;99.36
47366;BME280;33105;47.964;7.982;2023-05-21T17:43:05;96312.97;;;15.67;99.89
47366;BME280;33105;47.964;7.982;2023-05-21T17:47:19;96315.63;;;15.58;100.00
47366;BME280;33105;47.964;7.982;2023-05-21T19:11:24;96327.28;;;14.71;100.00
47366;BME280;33105;47.964;7.982;2023-05-21T19:17:45;96330.94;;;14.48;100.00
47366;BME280;33105;47.964;7.982;2023-05-21T19:20:51;96331.38;;;14.55;100.00
47366;BME280;33105;47.964;7.982;2023-05-21T19:23:54;96331.91;;;14.57;100.00
47366;BME280;33105;47.964;7.982;2023-05-21T19:27:14;96338.25;;;14.34;100.00
47366;BME280;33105;47.964;7.982;2023-05-21T19:38:54;96344.06;;;14.32;100.00
47366;BME280;33105;47.964;7.982;2023-05-21T19:42:08;96354.81;;;14.28;100.00
47366;BME280;33105;47.964;7.982;2023-05-21T19:45:16;96356.44;;;14.29;100.00
47366;BME280;33105;47.964;7.982;2023-05-21T19:48:20;96357.69;;;14.37;100.00
47366;BME280;33105;47.964;7.982;2023-05-21T19:52:40;96360.16;;;14.39;100.00
47366;BME280;33105;47.964;7.982;2023-05-21T19:55:49;96365.94;;;14.37;100.00
47366;BME280;33105;47.964;7.982;2023-05-21T19:58:56;96366.56;;;14.34;100.00
47366;BME280;33105;47.964;7.982;2023-05-21T20:02:59;96379.00;;;14.26;100.00
47366;BME280;33105;47.964;7.982;2023-05-21T20:06:10;96380.78;;;14.17;100.00
47366;BME280;33105;47.964;7.982;2023-05-21T20:09:32;96379.44;;;14.15;100.00
47366;BME280;33105;47.964;7.982;2023-05-21T20:13:13;96387.00;;;14.04;100.00
47366;BME280;33105;47.964;7.982;2023-05-21T20:30:06;96390.13;;;13.92;100.00
47366;BME280;33105;47.964;7.982;2023-05-21T20:33:58;96382.31;;;14.05;100.00
47366;BME280;33105;47.964;7.982;2023-05-21T20:37:12;96382.09;;;14.01;100.00
47366;BME280;33105;47.964;7.982;2023-05-21T20:41:13;96383.78;;;13.97;100.00
47366;BME280;33105;47.964;7.982;2023-05-21T20:44:24;96374.91;;;14.05;100.00
47366;BME280;33105;47.964;7.982;2023-05-21T20:47:30;96383.47;;;13.99;100.00
47366;BME280;33105;47.964;7.982;2023-05-21T20:51:23;96382.75;;;13.88;100.00
47366;BME280;33105;47.964;7.982;2023-05-21T20:54:33;96391.63;;;13.85;100.00
47366;BME280;33105;47.964;7.982;2023-05-21T21:03:36;96389.25;;;13.73;100.00
47366;BME280;33105;47.964;7.982;2023-05-21T21:07:22;96391.47;;;13.71;100.00
47366;BME280;33105;47.964;7.982;2023-05-21T21:10:31;96393.59;;;13.79;100.00
47366;BME280;33105;47.964;7.982;2023-05-21T21:18:31;96388.81;;;13.61;100.00
47366;BME280;33105;47.964;7.982;2023-05-21T21:21:48;96394.63;;;13.59;100.00
47366;BME280;33105;47.964;7.982;2023-05-21T21:25:38;96399.34;;;13.54;100.00
47366;BME280;33105;47.964;7.982;2023-05-21T21:41:37;96397.41;;;13.54;100.00
47366;BME280;33105;47.964;7.982;2023-05-21T21:45:35;96393.72;;;13.64;100.00
47366;BME280;33105;47.964;7.982;2023-05-21T21:49:38;96388.81;;;13.61;100.00
47366;BME280;33105;47.964;7.982;2023-05-21T21:53:00;96397.13;;;13.56;100.00
47366;BME280;33105;47.964;7.982;2023-05-21T22:05:15;96389.31;;;13.68;100.00
47366;BME280;33105;47.964;7.982;2023-05-21T22:11:57;96389.22;;;13.78;100.00
47366;BME280;33105;47.964;7.982;2023-05-21T22:20:45;96391.94;;;13.78;100.00
47366;BME280;33105;47.964;7.982;2023-05-21T22:34:26;96404.81;;;13.83;100.00
47366;BME280;33105;47.964;7.982;2023-05-21T22:38:49;96404.34;;;13.76;100.00
47366;BME280;33105;47.964;7.982;2023-05-21T22:42:51;96407.78;;;13.86;100.00
47366;BME280;33105;47.964;7.982;2023-05-21T22:45:53;96403.72;;;13.84;100.00
47366;BME280;33105;47.964;7.982;2023-05-21T22:49:35;96407.31;;;13.79;100.00
47366;BME280;33105;47.964;7.982;2023-05-21T22:53:47;96407.56;;;13.83;100.00
47366;BME280;33105;47.964;7.982;2023-05-21T23:02:47;96404.03;;;13.77;100.00
47366;BME280;33105;47.964;7.982;2023-05-21T23:06:58;96400.41;;;13.58;100.00
47366;BME280;33105;47.964;7.982;2023-05-21T23:10:18;96407.75;;;13.62;100.00
47366;BME280;33105;47.964;7.982;2023-05-21T23:42:54;96416.72;;;13.44;100.00
47366;BME280;33105;47.964;7.982;2023-05-21T23:51:57;96425.44;;;13.12;100.00
47366;BME280;33105;47.964;7.982;2023-05-21T23:55:15;96429.66;;;13.00;100.00
47366;BME280;33105;47.964;7.982;2023-05-21T23:59:00;96431.22;;;13.16;100.00
